createdAt,value
2018-10-09T00:00:14.004Z,12.02
2018-10-09T00:01:13.916Z,11.97
2018-10-09T00:02:13.864Z,11.94
2018-10-09T00:03:13.816Z,11.87
2018-10-09T00:04:13.796Z,11.94
2018-10-09T00:05:13.712Z,11.99
2018-10-09T00:06:13.693Z,12.02
2018-10-09T00:07:13.608Z,12.00
2018-10-09T00:08:13.558Z,12.03
2018-10-09T00:09:13.554Z,12.09
2018-10-09T00:10:13.459Z,12.10
2018-10-09T00:11:13.411Z,12.03
2018-10-09T00:12:13.359Z,12.17
2018-10-09T00:13:13.308Z,12.15
2018-10-09T00:14:13.279Z,12.13
2018-10-09T00:15:13.206Z,12.20
2018-10-09T00:16:13.153Z,12.20
2018-10-09T00:17:13.140Z,12.20
2018-10-09T00:18:13.095Z,12.21
2018-10-09T00:19:13.001Z,12.21
2018-10-09T00:20:12.958Z,12.29
2018-10-09T00:21:12.901Z,12.28
2018-10-09T00:22:12.891Z,12.29
2018-10-09T00:23:12.797Z,12.32
2018-10-09T00:24:12.753Z,12.29
2018-10-09T00:25:12.698Z,12.35
2018-10-09T00:26:12.688Z,12.31
2018-10-09T00:27:12.634Z,12.37
2018-10-09T00:28:12.546Z,12.40
2018-10-09T00:29:12.499Z,12.40
2018-10-09T00:30:12.445Z,12.28
2018-10-09T00:31:12.400Z,12.35
2018-10-09T00:32:12.377Z,12.32
2018-10-09T00:33:12.295Z,12.32
2018-10-09T00:34:12.246Z,12.32
2018-10-09T00:35:12.227Z,12.32
2018-10-09T00:36:12.146Z,12.31
2018-10-09T00:37:12.093Z,12.35
2018-10-09T00:38:12.040Z,12.35
2018-10-09T00:39:11.993Z,12.37
2018-10-09T00:40:11.971Z,12.32
2018-10-09T00:41:11.887Z,12.28
2018-10-09T00:42:11.841Z,12.32
2018-10-09T00:43:11.786Z,12.22
2018-10-09T00:44:11.774Z,12.22
2018-10-09T00:45:11.686Z,12.15
2018-10-09T00:46:11.635Z,12.18
2018-10-09T00:47:11.589Z,12.18
2018-10-09T00:48:11.532Z,12.09
2018-10-09T00:49:11.522Z,12.12
2018-10-09T00:50:11.433Z,12.02
2018-10-09T00:51:11.381Z,12.09
2018-10-09T00:52:11.339Z,12.06
2018-10-09T00:53:11.280Z,11.97
2018-10-09T00:54:11.271Z,12.02
2018-10-09T00:55:11.179Z,11.94
2018-10-09T00:56:11.162Z,11.97
2018-10-09T00:57:11.075Z,12.00
2018-10-09T00:58:11.026Z,12.04
2018-10-09T00:59:10.977Z,12.00
2018-10-09T01:00:10.927Z,12.02
2018-10-09T01:01:10.914Z,12.06
2018-10-09T01:02:10.826Z,12.03
2018-10-09T01:03:10.772Z,12.06
2018-10-09T01:04:10.725Z,12.06
2018-10-09T01:05:10.675Z,12.04
2018-10-09T01:06:10.648Z,11.88
2018-10-09T01:07:10.573Z,11.94
2018-10-09T01:08:10.521Z,11.91
2018-10-09T01:09:10.541Z,11.88
2018-10-09T01:10:10.420Z,11.81
2018-10-09T01:11:10.404Z,11.69
2018-10-09T01:12:10.319Z,11.68
2018-10-09T01:13:10.269Z,11.70
2018-10-09T01:14:10.220Z,11.72
2018-10-09T01:15:10.169Z,11.72
2018-10-09T01:16:10.150Z,11.78
2018-10-09T01:17:10.065Z,11.83
2018-10-09T01:18:10.021Z,11.69
2018-10-09T01:19:09.966Z,11.72
2018-10-09T01:20:09.945Z,11.68
2018-10-09T01:21:09.870Z,11.70
2018-10-09T01:22:09.814Z,11.81
2018-10-09T01:23:09.796Z,11.87
2018-10-09T01:24:09.712Z,11.84
2018-10-09T01:25:09.663Z,11.84
2018-10-09T01:26:09.613Z,11.81
2018-10-09T01:27:09.561Z,11.91
2018-10-09T01:28:09.542Z,11.91
2018-10-09T01:29:09.494Z,11.95
2018-10-09T01:30:09.417Z,11.87
2018-10-09T01:31:09.358Z,11.91
2018-10-09T01:32:09.308Z,11.90
2018-10-09T01:33:09.293Z,11.86
2018-10-09T01:34:09.206Z,11.83
2018-10-09T01:35:09.156Z,11.69
2018-10-09T01:36:09.136Z,11.70
2018-10-09T01:37:09.057Z,11.68
2018-10-09T01:38:09.005Z,11.62
2018-10-09T01:39:08.957Z,11.52
2018-10-09T01:40:08.903Z,11.55
2018-10-09T01:41:08.897Z,11.45
2018-10-09T01:42:08.802Z,11.41
2018-10-09T01:43:08.754Z,11.25
2018-10-09T01:44:08.702Z,11.30
2018-10-09T01:45:08.650Z,11.19
2018-10-09T01:46:08.630Z,11.15
2018-10-09T01:47:08.547Z,11.11
2018-10-09T01:48:08.497Z,11.10
2018-10-09T01:49:08.445Z,10.94
2018-10-09T01:50:08.398Z,10.93
2018-10-09T01:51:08.382Z,10.92
2018-10-09T01:52:08.327Z,10.89
2018-10-09T01:53:08.277Z,10.84
2018-10-09T01:54:08.194Z,10.78
2018-10-09T01:55:08.144Z,10.78
2018-10-09T01:56:08.094Z,10.79
2018-10-09T01:57:08.081Z,10.76
2018-10-09T01:58:07.989Z,10.69
2018-10-09T01:59:07.937Z,10.74
2018-10-09T02:00:07.892Z,10.69
2018-10-09T02:01:07.844Z,10.69
2018-10-09T02:02:07.817Z,10.76
2018-10-09T02:03:07.738Z,10.76
2018-10-09T02:04:07.682Z,10.74
2018-10-09T02:05:07.674Z,10.81
2018-10-09T02:06:07.588Z,10.81
2018-10-09T02:07:07.536Z,10.81
2018-10-09T02:08:07.517Z,10.89
2018-10-09T02:09:07.433Z,10.90
2018-10-09T02:10:07.380Z,10.90
2018-10-09T02:11:07.329Z,10.82
2018-10-09T02:12:07.308Z,10.89
2018-10-09T02:13:07.226Z,10.92
2018-10-09T02:14:07.210Z,10.90
2018-10-09T02:15:07.123Z,10.89
2018-10-09T02:16:07.080Z,10.86
2018-10-09T02:17:07.027Z,10.92
2018-10-09T02:18:06.978Z,10.79
2018-10-09T02:19:06.966Z,10.87
2018-10-09T02:20:06.870Z,10.90
2018-10-09T02:21:06.818Z,10.87
2018-10-09T02:22:06.768Z,10.96
2018-10-09T02:23:06.731Z,10.90
2018-10-09T02:24:06.699Z,11.05
2018-10-09T02:25:06.646Z,11.04
2018-10-09T02:26:06.562Z,11.05
2018-10-09T02:27:06.512Z,10.99
2018-10-09T02:28:06.510Z,11.17
2018-10-09T02:29:06.409Z,11.22
2018-10-09T02:30:06.360Z,11.26
2018-10-09T02:31:06.306Z,11.44
2018-10-09T02:32:06.259Z,11.47
2018-10-09T02:33:06.243Z,11.54
2018-10-09T02:34:06.159Z,11.50
2018-10-09T02:35:06.103Z,11.48
2018-10-09T02:36:06.060Z,11.59
2018-10-09T02:37:06.004Z,11.50
2018-10-09T02:38:05.984Z,11.59
2018-10-09T02:39:05.904Z,11.54
2018-10-09T02:40:05.891Z,11.62
2018-10-09T02:41:05.797Z,11.57
2018-10-09T02:42:05.748Z,11.57
2018-10-09T02:43:05.736Z,11.54
2018-10-09T02:44:05.643Z,11.51
2018-10-09T02:45:05.629Z,11.52
2018-10-09T02:46:05.558Z,11.47
2018-10-09T02:47:05.490Z,11.50
2018-10-09T02:48:05.469Z,11.57
2018-10-09T02:49:05.389Z,11.60
2018-10-09T02:50:05.368Z,11.57
2018-10-09T02:51:05.282Z,11.55
2018-10-09T02:52:05.232Z,11.52
2018-10-09T02:53:05.213Z,11.57
2018-10-09T02:54:05.138Z,11.59
2018-10-09T02:55:05.080Z,11.48
2018-10-09T02:56:05.029Z,11.52
2018-10-09T02:57:04.980Z,11.57
2018-10-09T02:58:04.959Z,11.50
2018-10-09T02:59:04.878Z,11.47
2018-10-09T03:00:04.829Z,11.50
2018-10-09T03:01:04.806Z,11.63
2018-10-09T03:02:04.728Z,11.59
2018-10-09T03:03:04.707Z,11.63
2018-10-09T03:04:04.620Z,11.57
2018-10-09T03:05:04.568Z,11.57
2018-10-09T03:06:04.551Z,11.55
2018-10-09T03:07:04.516Z,11.54
2018-10-09T03:08:04.419Z,11.44
2018-10-09T03:09:04.380Z,11.59
2018-10-09T03:10:04.319Z,11.45
2018-10-09T03:11:04.265Z,11.50
2018-10-09T03:12:04.252Z,11.48
2018-10-09T03:13:04.162Z,11.57
2018-10-09T03:14:04.111Z,11.59
2018-10-09T03:15:04.058Z,11.57
2018-10-09T03:16:04.005Z,11.59
2018-10-09T03:17:03.990Z,11.65
2018-10-09T03:18:03.921Z,11.60
2018-10-09T03:19:03.870Z,11.55
2018-10-09T03:20:03.851Z,11.63
2018-10-09T03:21:03.758Z,11.69
2018-10-09T03:22:03.706Z,11.57
2018-10-09T03:23:03.654Z,11.60
2018-10-09T03:24:03.603Z,11.65
2018-10-09T03:25:03.583Z,11.62
2018-10-09T03:26:03.506Z,11.66
2018-10-09T03:27:03.474Z,11.66
2018-10-09T03:28:03.393Z,11.66
2018-10-09T03:29:03.342Z,11.70
2018-10-09T03:30:03.329Z,11.72
2018-10-09T03:31:03.241Z,11.83
2018-10-09T03:32:03.223Z,11.86
2018-10-09T03:33:03.137Z,11.91
2018-10-09T03:34:03.089Z,11.97
2018-10-09T03:35:03.077Z,11.91
2018-10-09T03:36:02.984Z,11.97
2018-10-09T03:37:02.936Z,12.02
2018-10-09T03:38:02.892Z,11.99
2018-10-09T03:39:02.832Z,11.94
2018-10-09T03:40:02.811Z,12.02
2018-10-09T03:41:02.726Z,11.99
2018-10-09T03:42:02.679Z,11.97
2018-10-09T03:43:02.624Z,11.94
2018-10-09T03:44:02.577Z,11.86
2018-10-09T03:45:02.560Z,11.84
2018-10-09T03:46:02.479Z,11.75
2018-10-09T03:47:02.426Z,11.73
2018-10-09T03:48:02.370Z,11.65
2018-10-09T03:49:02.358Z,11.66
2018-10-09T03:50:02.269Z,11.69
2018-10-09T03:51:02.221Z,11.70
2018-10-09T03:52:02.167Z,11.60
2018-10-09T03:53:02.116Z,11.73
2018-10-09T03:54:02.096Z,11.72
2018-10-09T03:55:02.012Z,11.70
2018-10-09T03:56:01.961Z,11.72
2018-10-09T03:57:01.915Z,11.66
2018-10-09T03:58:01.868Z,11.68
2018-10-09T03:59:01.844Z,11.69
2018-10-09T04:00:01.761Z,11.72
2018-10-09T04:01:01.705Z,11.69
2018-10-09T04:02:01.654Z,11.72
2018-10-09T04:03:01.643Z,11.72
2018-10-09T04:04:01.554Z,11.68
2018-10-09T04:05:01.502Z,11.78
2018-10-09T04:06:01.456Z,11.86
2018-10-09T04:07:01.434Z,11.86
2018-10-09T04:08:01.351Z,11.72
2018-10-09T04:09:01.328Z,11.83
2018-10-09T04:10:01.289Z,11.80
2018-10-09T04:11:01.194Z,11.77
2018-10-09T04:12:01.145Z,11.75
2018-10-09T04:13:01.094Z,11.86
2018-10-09T04:14:01.044Z,11.81
2018-10-09T04:15:01.024Z,11.69
2018-10-09T04:16:00.939Z,11.69
2018-10-09T04:17:00.890Z,11.72
2018-10-09T04:18:00.839Z,11.70
2018-10-09T04:19:00.791Z,11.73
2018-10-09T04:20:00.865Z,11.69
2018-10-09T04:21:00.687Z,11.78
2018-10-09T04:22:00.632Z,11.75
2018-10-09T04:23:00.579Z,11.80
2018-10-09T04:24:00.533Z,11.83
2018-10-09T04:25:00.509Z,11.81
2018-10-09T04:26:00.426Z,11.78
2018-10-09T04:27:00.413Z,11.87
2018-10-09T04:28:00.325Z,11.84
2018-10-09T04:29:00.273Z,11.84
2018-10-09T04:30:00.228Z,11.88
2018-10-09T04:31:00.202Z,11.87
2018-10-09T04:32:00.249Z,11.75
2018-10-09T04:33:00.073Z,11.72
2018-10-09T04:34:00.020Z,11.65
2018-10-09T04:34:59.968Z,11.65
2018-10-09T04:35:59.916Z,11.60
2018-10-09T04:36:59.897Z,11.66
2018-10-09T04:37:59.812Z,11.60
2018-10-09T04:38:59.760Z,11.59
2018-10-09T04:39:59.717Z,11.57
2018-10-09T04:40:59.703Z,11.52
2018-10-09T04:41:59.611Z,11.62
2018-10-09T04:42:59.557Z,11.62
2018-10-09T04:43:59.512Z,11.68
2018-10-09T04:44:59.456Z,11.70
2018-10-09T04:45:59.459Z,11.70
2018-10-09T04:46:59.358Z,11.68
2018-10-09T04:47:59.327Z,11.69
2018-10-09T04:48:59.253Z,11.72
2018-10-09T04:49:59.200Z,11.84
2018-10-09T04:50:59.191Z,11.70
2018-10-09T04:51:59.103Z,11.73
2018-10-09T04:52:59.092Z,11.80
2018-10-09T04:53:58.998Z,11.80
2018-10-09T04:54:58.942Z,11.87
2018-10-09T04:55:58.923Z,11.87
2018-10-09T04:56:58.848Z,11.81
2018-10-09T04:57:58.792Z,11.86
2018-10-09T04:58:58.739Z,11.75
2018-10-09T04:59:58.689Z,11.83
2018-10-09T05:00:58.673Z,11.68
2018-10-09T05:01:58.590Z,11.69
2018-10-09T05:02:58.569Z,11.68
2018-10-09T05:03:58.483Z,11.68
2018-10-09T05:04:58.437Z,11.60
2018-10-09T05:05:58.383Z,11.57
2018-10-09T05:06:58.333Z,11.50
2018-10-09T05:07:58.317Z,11.55
2018-10-09T05:08:58.232Z,11.48
2018-10-09T05:09:58.177Z,11.51
2018-10-09T05:10:58.124Z,11.54
2018-10-09T05:11:58.106Z,11.57
2018-10-09T05:12:58.022Z,11.59
2018-10-09T05:13:57.973Z,11.45
2018-10-09T05:14:57.922Z,11.44
2018-10-09T05:15:57.903Z,11.44
2018-10-09T05:16:57.823Z,11.48
2018-10-09T05:17:57.769Z,11.55
2018-10-09T05:18:57.717Z,11.63
2018-10-09T05:19:57.665Z,11.57
2018-10-09T05:20:57.660Z,11.62
2018-10-09T05:21:57.564Z,11.55
2018-10-09T05:22:57.512Z,11.60
2018-10-09T05:23:57.459Z,11.62
2018-10-09T05:24:57.413Z,11.63
2018-10-09T05:25:57.388Z,11.65
2018-10-09T05:26:57.306Z,11.63
2018-10-09T05:27:57.262Z,11.65
2018-10-09T05:28:57.204Z,11.55
2018-10-09T05:29:57.151Z,11.57
2018-10-09T05:30:57.163Z,11.48
2018-10-09T05:31:57.062Z,11.57
2018-10-09T05:32:57.000Z,11.51
2018-10-09T05:33:56.947Z,11.59
2018-10-09T05:34:56.934Z,11.52
2018-10-09T05:35:56.845Z,11.57
2018-10-09T05:36:56.826Z,11.57
2018-10-09T05:37:56.749Z,11.52
2018-10-09T05:38:56.697Z,11.65
2018-10-09T05:39:56.639Z,11.66
2018-10-09T05:40:56.588Z,11.72
2018-10-09T05:41:56.575Z,11.63
2018-10-09T05:42:56.488Z,11.77
2018-10-09T05:43:56.436Z,11.69
2018-10-09T05:44:56.385Z,11.68
2018-10-09T05:45:56.334Z,11.72
2018-10-09T05:46:56.313Z,11.73
2018-10-09T05:47:56.230Z,11.83
2018-10-09T05:48:56.178Z,11.81
2018-10-09T05:49:56.129Z,11.80
2018-10-09T05:50:56.078Z,11.80
2018-10-09T05:51:56.065Z,11.88
2018-10-09T05:52:55.978Z,11.87
2018-10-09T05:53:55.924Z,11.87
2018-10-09T05:54:55.870Z,11.87
2018-10-09T05:55:55.830Z,11.87
2018-10-09T05:56:55.800Z,11.86
2018-10-09T05:57:55.727Z,11.88
2018-10-09T05:58:55.673Z,11.84
2018-10-09T05:59:55.617Z,11.86
2018-10-09T06:00:55.564Z,11.87
2018-10-09T06:01:55.548Z,11.86
2018-10-09T06:02:55.496Z,11.88
2018-10-09T06:03:55.411Z,11.87
2018-10-09T06:04:55.365Z,11.90
2018-10-09T06:05:55.386Z,12.00
2018-10-09T06:06:55.289Z,12.02
2018-10-09T06:07:55.207Z,12.02
2018-10-09T06:08:55.186Z,12.12
2018-10-09T06:09:55.107Z,12.24
2018-10-09T06:10:55.054Z,12.28
2018-10-09T06:11:55.002Z,12.35
2018-10-09T06:12:54.952Z,12.39
2018-10-09T06:13:54.935Z,12.39
2018-10-09T06:14:54.855Z,12.43
2018-10-09T06:15:54.877Z,12.47
2018-10-09T06:16:54.749Z,12.45
2018-10-09T06:17:54.698Z,12.50
2018-10-09T06:18:54.679Z,12.65
2018-10-09T06:19:54.599Z,12.64
2018-10-09T06:20:54.547Z,12.65
2018-10-09T06:21:54.495Z,12.61
2018-10-09T06:22:54.445Z,12.70
2018-10-09T06:23:54.425Z,12.79
2018-10-09T06:24:54.348Z,12.79
2018-10-09T06:25:54.292Z,12.95
2018-10-09T06:26:54.242Z,12.97
2018-10-09T06:27:54.204Z,12.97
2018-10-09T06:28:54.178Z,12.97
2018-10-09T06:29:54.130Z,13.11
2018-10-09T06:30:54.043Z,13.08
2018-10-09T06:31:53.996Z,13.18
2018-10-09T06:32:53.946Z,13.13
2018-10-09T06:33:53.949Z,13.16
2018-10-09T06:34:53.876Z,13.35
2018-10-09T06:35:53.790Z,13.31
2018-10-09T06:36:53.736Z,13.37
2018-10-09T06:37:53.689Z,13.31
2018-10-09T06:38:53.637Z,13.28
2018-10-09T06:39:53.619Z,13.15
2018-10-09T06:40:53.538Z,13.27
2018-10-09T06:41:53.485Z,13.22
2018-10-09T06:42:53.566Z,13.03
2018-10-09T06:43:53.389Z,13.08
2018-10-09T06:44:53.339Z,13.08
2018-10-09T06:45:53.287Z,13.05
2018-10-09T06:46:53.238Z,13.09
2018-10-09T06:47:53.225Z,13.08
2018-10-09T06:48:53.140Z,13.11
2018-10-09T06:49:53.088Z,13.22
2018-10-09T06:50:53.044Z,13.23
2018-10-09T06:51:53.030Z,13.27
2018-10-09T06:52:52.936Z,13.39
2018-10-09T06:53:53.018Z,13.38
2018-10-09T06:54:52.923Z,13.50
2018-10-09T06:55:52.786Z,13.52
2018-10-09T06:56:52.777Z,13.56
2018-10-09T06:57:52.696Z,13.72
2018-10-09T06:58:52.639Z,13.86
2018-10-09T06:59:52.587Z,14.18
2018-10-09T07:00:52.536Z,14.32
2018-10-09T07:01:52.529Z,14.41
2018-10-09T07:02:52.436Z,14.53
2018-10-09T07:03:52.389Z,14.50
2018-10-09T07:04:52.339Z,14.54
2018-10-09T07:05:52.298Z,14.65
2018-10-09T07:06:52.275Z,14.72
2018-10-09T07:07:52.191Z,14.86
2018-10-09T07:08:52.144Z,15.02
2018-10-09T07:09:52.100Z,15.25
2018-10-09T07:10:52.048Z,15.67
2018-10-09T07:11:52.031Z,15.86
2018-10-09T07:12:51.952Z,15.98
2018-10-09T07:13:51.903Z,16.08
2018-10-09T07:14:51.858Z,16.21
2018-10-09T07:15:51.805Z,16.13
2018-10-09T07:16:51.799Z,16.39
2018-10-09T07:17:51.715Z,16.78
2018-10-09T07:18:51.663Z,16.96
2018-10-09T07:19:51.617Z,16.90
2018-10-09T07:20:51.570Z,16.90
2018-10-09T07:21:51.561Z,17.22
2018-10-09T07:22:51.473Z,17.19
2018-10-09T07:23:51.426Z,17.22
2018-10-09T07:24:51.380Z,17.20
2018-10-09T07:25:51.382Z,17.11
2018-10-09T07:26:51.294Z,17.01
2018-10-09T07:27:51.306Z,17.04
2018-10-09T07:28:51.219Z,17.19
2018-10-09T07:29:51.151Z,17.24
2018-10-09T07:30:51.147Z,17.45
2018-10-09T07:31:51.063Z,17.46
2018-10-09T07:32:51.017Z,17.38
2018-10-09T07:33:50.978Z,17.39
2018-10-09T07:34:50.930Z,17.38
2018-10-09T07:35:50.929Z,17.44
2018-10-09T07:36:50.845Z,17.76
2018-10-09T07:37:50.796Z,17.68
2018-10-09T07:38:50.750Z,17.57
2018-10-09T07:39:50.709Z,17.52
2018-10-09T07:40:50.692Z,17.44
2018-10-09T07:41:50.619Z,17.45
2018-10-09T07:42:50.578Z,17.27
2018-10-09T07:43:50.545Z,17.27
2018-10-09T07:44:50.519Z,17.15
2018-10-09T07:45:50.444Z,17.02
2018-10-09T07:46:50.437Z,16.97
2018-10-09T07:47:50.353Z,17.01
2018-10-09T07:48:50.303Z,16.89
2018-10-09T07:49:50.297Z,16.96
2018-10-09T07:50:50.215Z,17.12
2018-10-09T07:51:50.207Z,17.09
2018-10-09T07:52:50.163Z,17.04
2018-10-09T07:53:50.086Z,17.12
2018-10-09T07:54:50.041Z,17.14
2018-10-09T07:55:49.995Z,17.19
2018-10-09T07:56:49.977Z,17.14
2018-10-09T07:57:49.908Z,17.26
2018-10-09T07:58:49.895Z,17.29
2018-10-09T07:59:49.819Z,17.19
2018-10-09T08:00:49.801Z,17.12
2018-10-09T08:01:49.731Z,17.06
2018-10-09T08:02:49.682Z,17.01
2018-10-09T08:03:49.642Z,17.12
2018-10-09T08:04:49.720Z,17.14
2018-10-09T08:05:49.581Z,17.27
2018-10-09T08:06:49.503Z,17.48
2018-10-09T08:07:49.464Z,17.97
2018-10-09T08:08:49.448Z,18.43
2018-10-09T08:09:49.401Z,18.74
2018-10-09T08:10:49.372Z,18.95
2018-10-09T08:11:49.291Z,19.18
2018-10-09T08:12:49.242Z,19.36
2018-10-09T08:13:49.207Z,19.70
2018-10-09T08:14:49.156Z,20.04
2018-10-09T08:15:49.139Z,20.55
2018-10-09T08:16:49.067Z,20.82
2018-10-09T08:17:49.027Z,21.12
2018-10-09T08:18:48.992Z,21.20
2018-10-09T08:19:48.945Z,21.39
2018-10-09T08:20:48.933Z,21.46
2018-10-09T08:21:48.863Z,21.88
2018-10-09T08:22:48.892Z,22.07
2018-10-09T08:23:48.830Z,21.80
2018-10-09T08:24:48.757Z,21.73
2018-10-09T08:25:48.702Z,21.93
2018-10-09T08:26:48.667Z,22.11
2018-10-09T08:27:48.632Z,22.53
2018-10-09T08:28:48.618Z,22.94
2018-10-09T08:29:48.549Z,23.40
2018-10-09T08:30:48.538Z,23.62
2018-10-09T08:31:48.475Z,23.51
2018-10-09T08:32:48.435Z,23.28
2018-10-09T08:33:48.435Z,23.31
2018-10-09T08:34:48.351Z,23.37
2018-10-09T08:35:48.320Z,23.34
2018-10-09T08:36:48.278Z,23.15
2018-10-09T08:37:48.243Z,23.13
2018-10-09T08:38:48.240Z,23.08
2018-10-09T08:39:48.162Z,22.85
2018-10-09T08:40:48.159Z,22.70
2018-10-09T08:41:48.090Z,22.55
2018-10-09T08:42:48.053Z,22.51
2018-10-09T08:43:48.016Z,22.53
2018-10-09T08:44:47.975Z,22.66
2018-10-09T08:45:47.968Z,22.66
2018-10-09T08:46:47.901Z,22.59
2018-10-09T08:47:47.863Z,22.41
2018-10-09T08:48:47.836Z,22.54
2018-10-09T08:49:47.784Z,22.55
2018-10-09T08:50:47.779Z,22.60
2018-10-09T08:51:47.765Z,22.22
2018-10-09T08:52:47.671Z,22.11
2018-10-09T08:53:47.635Z,22.02
2018-10-09T08:54:47.597Z,21.77
2018-10-09T08:55:47.591Z,21.70
2018-10-09T08:56:47.521Z,21.61
2018-10-09T08:57:47.478Z,21.69
2018-10-09T08:58:47.441Z,21.48
2018-10-09T08:59:47.441Z,21.46
2018-10-09T09:00:47.366Z,21.24
2018-10-09T09:01:47.323Z,21.17
2018-10-09T09:02:47.301Z,21.22
2018-10-09T09:03:47.247Z,21.30
2018-10-09T09:04:47.246Z,21.25
2018-10-09T09:05:47.162Z,21.35
2018-10-09T09:06:47.127Z,21.33
2018-10-09T09:07:47.083Z,21.32
2018-10-09T09:08:47.050Z,21.33
2018-10-09T09:09:47.106Z,21.22
2018-10-09T09:10:46.964Z,21.20
2018-10-09T09:11:46.995Z,21.11
2018-10-09T09:12:46.917Z,21.07
2018-10-09T09:13:46.847Z,21.02
2018-10-09T09:14:46.852Z,20.80
2018-10-09T09:15:46.765Z,20.47
2018-10-09T09:16:46.727Z,20.41
2018-10-09T09:17:46.691Z,20.24
2018-10-09T09:18:46.674Z,20.04
2018-10-09T09:19:46.601Z,19.92
2018-10-09T09:20:46.574Z,19.76
2018-10-09T09:21:46.539Z,19.56
2018-10-09T09:22:46.486Z,19.37
2018-10-09T09:23:46.472Z,19.16
2018-10-09T09:24:46.394Z,19.07
2018-10-09T09:25:46.354Z,18.86
2018-10-09T09:26:46.421Z,18.92
2018-10-09T09:27:46.345Z,18.74
2018-10-09T09:28:46.258Z,18.70
2018-10-09T09:29:46.226Z,18.77
2018-10-09T09:30:46.141Z,18.90
2018-10-09T09:31:46.104Z,18.86
2018-10-09T09:32:46.064Z,18.98
2018-10-09T09:33:46.021Z,19.00
2018-10-09T09:34:46.029Z,19.14
2018-10-09T09:35:45.928Z,19.14
2018-10-09T09:36:45.901Z,19.11
2018-10-09T09:37:45.844Z,19.11
2018-10-09T09:38:45.807Z,19.30
2018-10-09T09:39:45.794Z,19.31
2018-10-09T09:40:45.754Z,19.40
2018-10-09T09:41:45.673Z,19.31
2018-10-09T09:42:45.635Z,19.48
2018-10-09T09:43:45.586Z,19.55
2018-10-09T09:44:45.545Z,19.55
2018-10-09T09:45:45.542Z,19.58
2018-10-09T09:46:45.460Z,19.58
2018-10-09T09:47:45.418Z,19.49
2018-10-09T09:48:45.378Z,19.41
2018-10-09T09:49:45.326Z,19.49
2018-10-09T09:50:45.315Z,19.55
2018-10-09T09:51:45.250Z,19.52
2018-10-09T09:52:45.226Z,19.44
2018-10-09T09:53:45.154Z,19.52
2018-10-09T09:54:45.114Z,19.52
2018-10-09T09:55:45.071Z,19.52
2018-10-09T09:56:45.026Z,19.40
2018-10-09T09:57:45.060Z,19.37
2018-10-09T09:58:45.157Z,19.27
2018-10-09T09:59:44.898Z,19.21
2018-10-09T10:00:44.862Z,19.31
2018-10-09T10:01:44.809Z,19.41
2018-10-09T10:02:44.800Z,19.49
2018-10-09T10:03:44.748Z,19.58
2018-10-09T10:04:44.675Z,19.81
2018-10-09T10:05:44.632Z,20.10
2018-10-09T10:06:44.637Z,20.26
2018-10-09T10:07:44.601Z,20.41
2018-10-09T10:08:44.503Z,20.48
2018-10-09T10:09:44.454Z,20.63
2018-10-09T10:10:44.412Z,20.72
2018-10-09T10:11:44.370Z,20.72
2018-10-09T10:12:44.357Z,20.93
2018-10-09T10:13:44.313Z,21.17
2018-10-09T10:14:44.236Z,21.46
2018-10-09T10:15:44.230Z,21.69
2018-10-09T10:16:44.152Z,21.76
2018-10-09T10:17:44.127Z,21.72
2018-10-09T10:18:44.100Z,21.77
2018-10-09T10:19:44.024Z,21.83
2018-10-09T10:20:44.012Z,21.75
2018-10-09T10:21:43.945Z,21.67
2018-10-09T10:22:43.892Z,21.40
2018-10-09T10:23:43.885Z,21.54
2018-10-09T10:24:43.806Z,21.57
2018-10-09T10:25:43.765Z,21.67
2018-10-09T10:26:43.722Z,21.62
2018-10-09T10:27:43.676Z,21.42
2018-10-09T10:28:43.675Z,21.42
2018-10-09T10:29:43.595Z,21.69
2018-10-09T10:30:43.559Z,21.69
2018-10-09T10:31:43.522Z,21.62
2018-10-09T10:32:43.475Z,21.67
2018-10-09T10:33:43.456Z,21.57
2018-10-09T10:34:43.399Z,21.89
2018-10-09T10:35:43.441Z,22.23
2018-10-09T10:36:43.373Z,22.53
2018-10-09T10:37:43.259Z,22.65
2018-10-09T10:38:43.262Z,22.45
2018-10-09T10:39:43.187Z,22.36
2018-10-09T10:40:43.143Z,22.48
2018-10-09T10:41:43.090Z,22.73
2018-10-09T10:42:43.041Z,23.00
2018-10-09T10:43:43.041Z,23.24
2018-10-09T10:44:42.964Z,23.51
2018-10-09T10:45:42.916Z,23.41
2018-10-09T10:46:42.877Z,23.44
2018-10-09T10:47:42.831Z,23.36
2018-10-09T10:48:42.833Z,23.23
2018-10-09T10:49:42.750Z,23.34
2018-10-09T10:50:42.706Z,23.08
2018-10-09T10:51:42.665Z,23.12
2018-10-09T10:52:42.624Z,23.23
2018-10-09T10:53:42.616Z,23.47
2018-10-09T10:54:42.552Z,23.73
2018-10-09T10:55:42.535Z,24.05
2018-10-09T10:56:42.477Z,24.21
2018-10-09T10:57:42.418Z,24.23
2018-10-09T10:58:42.381Z,24.28
2018-10-09T10:59:42.379Z,24.39
2018-10-09T11:00:42.315Z,24.50
2018-10-09T11:01:42.281Z,24.69
2018-10-09T11:02:42.212Z,24.80
2018-10-09T11:03:42.177Z,24.99
2018-10-09T11:04:42.163Z,24.86
2018-10-09T11:05:42.099Z,24.73
2018-10-09T11:06:42.049Z,24.29
2018-10-09T11:07:42.073Z,24.18
2018-10-09T11:08:41.971Z,23.98
2018-10-09T11:09:41.929Z,23.87
2018-10-09T11:10:41.917Z,23.87
2018-10-09T11:11:41.847Z,23.91
2018-10-09T11:12:41.807Z,23.83
2018-10-09T11:13:41.777Z,23.83
2018-10-09T11:14:41.774Z,23.62
2018-10-09T11:15:41.722Z,23.55
2018-10-09T11:16:41.642Z,23.40
2018-10-09T11:17:41.601Z,23.17
2018-10-09T11:18:41.560Z,22.96
2018-10-09T11:19:41.524Z,22.76
2018-10-09T11:20:41.515Z,22.65
2018-10-09T11:21:41.497Z,22.63
2018-10-09T11:22:41.412Z,22.75
2018-10-09T11:23:41.359Z,22.68
2018-10-09T11:24:41.350Z,22.63
2018-10-09T11:25:41.273Z,22.65
2018-10-09T11:26:41.270Z,22.81
2018-10-09T11:27:41.192Z,22.85
2018-10-09T11:28:41.163Z,23.15
2018-10-09T11:29:41.110Z,23.36
2018-10-09T11:30:41.105Z,23.48
2018-10-09T11:31:41.070Z,23.74
2018-10-09T11:32:40.986Z,23.87
2018-10-09T11:33:40.959Z,23.99
2018-10-09T11:34:40.905Z,24.11
2018-10-09T11:35:40.899Z,24.06
2018-10-09T11:36:40.824Z,23.87
2018-10-09T11:37:40.783Z,23.86
2018-10-09T11:38:40.738Z,23.91
2018-10-09T11:39:40.696Z,23.95
2018-10-09T11:40:40.692Z,23.87
2018-10-09T11:41:40.616Z,23.78
2018-10-09T11:42:40.604Z,23.99
2018-10-09T11:43:40.537Z,24.29
2018-10-09T11:44:40.497Z,24.42
2018-10-09T11:45:40.492Z,24.35
2018-10-09T11:46:40.411Z,24.40
2018-10-09T11:47:40.371Z,24.32
2018-10-09T11:48:40.332Z,24.02
2018-10-09T11:49:40.291Z,24.11
2018-10-09T11:50:40.292Z,23.98
2018-10-09T11:51:40.215Z,23.93
2018-10-09T11:52:40.169Z,24.02
2018-10-09T11:53:40.129Z,24.14
2018-10-09T11:54:40.087Z,24.24
2018-10-09T11:55:40.078Z,24.36
2018-10-09T11:56:40.011Z,24.26
2018-10-09T11:57:39.965Z,24.20
2018-10-09T11:58:39.947Z,24.20
2018-10-09T11:59:39.883Z,24.26
2018-10-09T12:00:39.884Z,24.54
2018-10-09T12:01:39.860Z,24.69
2018-10-09T12:02:39.808Z,25.01
2018-10-09T12:03:39.728Z,25.01
2018-10-09T12:04:39.682Z,24.88
2018-10-09T12:05:39.698Z,24.86
2018-10-09T12:06:39.642Z,24.74
2018-10-09T12:07:39.558Z,24.54
2018-10-09T12:08:39.522Z,24.58
2018-10-09T12:09:39.487Z,24.63
2018-10-09T12:10:39.441Z,24.57
2018-10-09T12:11:39.433Z,24.68
2018-10-09T12:12:39.360Z,24.69
2018-10-09T12:13:39.316Z,24.77
2018-10-09T12:14:39.309Z,25.01
2018-10-09T12:15:39.255Z,25.03
2018-10-09T12:16:39.228Z,24.96
2018-10-09T12:17:39.159Z,25.10
2018-10-09T12:18:39.149Z,24.99
2018-10-09T12:19:39.113Z,24.84
2018-10-09T12:20:39.043Z,24.74
2018-10-09T12:21:38.998Z,24.57
2018-10-09T12:22:38.998Z,24.50
2018-10-09T12:23:38.916Z,24.60
2018-10-09T12:24:38.877Z,24.60
2018-10-09T12:25:38.841Z,24.55
2018-10-09T12:26:38.795Z,24.54
2018-10-09T12:27:38.795Z,24.33
2018-10-09T12:28:38.715Z,24.36
2018-10-09T12:29:38.675Z,24.36
2018-10-09T12:30:38.634Z,24.45
2018-10-09T12:31:38.594Z,24.70
2018-10-09T12:32:38.598Z,24.88
2018-10-09T12:33:38.514Z,25.04
2018-10-09T12:34:38.478Z,24.98
2018-10-09T12:35:38.435Z,25.13
2018-10-09T12:36:38.406Z,25.26
2018-10-09T12:37:38.386Z,25.28
2018-10-09T12:38:38.311Z,25.36
2018-10-09T12:39:38.306Z,25.46
2018-10-09T12:40:38.237Z,25.36
2018-10-09T12:41:38.193Z,25.51
2018-10-09T12:42:38.154Z,25.65
2018-10-09T12:43:38.115Z,25.73
2018-10-09T12:44:38.122Z,25.69
2018-10-09T12:45:38.044Z,25.41
2018-10-09T12:46:38.005Z,25.65
2018-10-09T12:47:37.956Z,25.68
2018-10-09T12:48:37.916Z,25.84
2018-10-09T12:49:37.915Z,25.68
2018-10-09T12:50:37.834Z,25.69
2018-10-09T12:51:37.793Z,25.68